createdAt,value
2022-10-18T00:02:17.627Z,99213.66
2022-10-18T00:04:50.430Z,99201.06
2022-10-18T00:07:20.152Z,99206.19
2022-10-18T00:09:49.840Z,99204.59
2022-10-18T00:12:19.527Z,99207.34
2022-10-18T00:14:51.582Z,99208.50
2022-10-18T00:17:21.337Z,99210.81
2022-10-18T00:19:53.722Z,99221.44
2022-10-18T00:22:23.394Z,99218.31
2022-10-18T00:24:53.188Z,99206.53
2022-10-18T00:27:23.111Z,99215.28
2022-10-18T00:29:55.527Z,99227.38
2022-10-18T00:32:25.438Z,99228.22
2022-10-18T00:34:57.694Z,99227.81
2022-10-18T00:37:27.477Z,99232.19
2022-10-18T00:39:57.160Z,99213.31
2022-10-18T00:42:30.964Z,99216.81
2022-10-18T00:45:15.459Z,99213.31
2022-10-18T00:47:48.460Z,99209.78
2022-10-18T00:50:22.852Z,99218.47
2022-10-18T00:52:56.979Z,99219.69
2022-10-18T00:55:27.177Z,99219.59
2022-10-18T00:57:58.659Z,99220.81
2022-10-18T01:00:28.379Z,99222.34
2022-10-18T01:02:58.199Z,99219.19
2022-10-18T01:05:30.749Z,99219.94
2022-10-18T01:08:17.975Z,99219.16
2022-10-18T01:10:57.288Z,99226.38
2022-10-18T01:13:38.437Z,99220.00
2022-10-18T01:16:16.906Z,99223.88
2022-10-18T01:18:52.456Z,99225.88
2022-10-18T01:21:37.689Z,99224.59
2022-10-18T01:24:38.454Z,99215.97
2022-10-18T01:27:33.488Z,99217.91
2022-10-18T01:30:33.435Z,99215.56
2022-10-18T01:33:08.603Z,99215.97
2022-10-18T01:35:43.730Z,99209.72
2022-10-18T01:38:18.125Z,99215.69
2022-10-18T01:40:51.258Z,99219.94
2022-10-18T01:43:24.472Z,99214.03
2022-10-18T01:45:58.560Z,99216.09
2022-10-18T01:48:29.027Z,99217.25
2022-10-18T01:50:59.637Z,99219.66
2022-10-18T01:53:32.796Z,99213.72
2022-10-18T01:56:27.051Z,99204.31
2022-10-18T01:59:05.515Z,99207.44
2022-10-18T02:01:48.329Z,99201.97
2022-10-18T02:04:29.928Z,99203.59
2022-10-18T02:07:08.869Z,99200.06
2022-10-18T02:09:43.242Z,99197.72
2022-10-18T02:12:17.711Z,99198.13
2022-10-18T02:14:48.649Z,99206.41
2022-10-18T02:17:23.510Z,99199.69
2022-10-18T02:19:58.690Z,99197.72
2022-10-18T02:22:32.905Z,99204.47
2022-10-18T02:25:06.355Z,99206.03
2022-10-18T02:27:36.193Z,99205.94
2022-10-18T02:30:06.490Z,99203.94
2022-10-18T02:32:44.452Z,99199.28
2022-10-18T02:35:20.832Z,99195.69
2022-10-18T02:37:53.288Z,99199.94
2022-10-18T02:40:23.258Z,99197.13
2022-10-18T02:42:57.771Z,99192.78
2022-10-18T02:45:28.430Z,99198.69
2022-10-18T02:48:00.693Z,99198.66
2022-10-18T02:50:30.455Z,99212.41
2022-10-18T02:53:00.138Z,99201.38
2022-10-18T02:55:29.948Z,99207.28
2022-10-18T02:57:59.615Z,99200.22
2022-10-18T03:00:29.280Z,99194.72
2022-10-18T03:03:01.552Z,99193.03
2022-10-18T03:05:31.297Z,99197.88
2022-10-18T03:08:01.049Z,99198.97
2022-10-18T03:10:30.746Z,99193.03
2022-10-18T03:13:00.575Z,99195.75
2022-10-18T03:15:30.221Z,99192.56
2022-10-18T03:18:02.501Z,99186.78
2022-10-18T03:20:32.294Z,99195.06
2022-10-18T03:23:02.013Z,99201.00
2022-10-18T03:25:31.699Z,99191.97
2022-10-18T03:28:01.442Z,99197.81
2022-10-18T03:30:31.149Z,99193.94
2022-10-18T03:33:03.489Z,99190.81
2022-10-18T03:35:33.263Z,99189.28
2022-10-18T03:38:02.950Z,99190.81
2022-10-18T03:40:32.607Z,99184.47
2022-10-18T03:43:02.288Z,99188.06
2022-10-18T03:45:31.955Z,99186.47
2022-10-18T03:48:04.211Z,99182.88
2022-10-18T03:50:33.942Z,99187.59
2022-10-18T03:53:03.713Z,99180.16
2022-10-18T03:55:33.413Z,99178.22
2022-10-18T03:58:03.333Z,99183.72
2022-10-18T04:00:33.211Z,99191.59
2022-10-18T04:03:05.592Z,99186.94
2022-10-18T04:05:36.674Z,99185.31
2022-10-18T04:08:06.634Z,99176.69
2022-10-18T04:10:36.366Z,99190.06
2022-10-18T04:13:06.069Z,99184.13
2022-10-18T04:15:36.075Z,99185.69
2022-10-18T04:18:08.676Z,99189.28
2022-10-18T04:20:38.451Z,99175.06
2022-10-18T04:23:08.177Z,99172.75
2022-10-18T04:25:37.909Z,99185.31
2022-10-18T04:28:08.146Z,99184.50
2022-10-18T04:30:37.953Z,99173.94
2022-10-18T04:33:10.302Z,99186.16
2022-10-18T04:35:39.977Z,99202.34
2022-10-18T04:38:09.815Z,99194.41
2022-10-18T04:40:40.412Z,99195.28
2022-10-18T04:43:10.104Z,99199.16
2022-10-18T04:45:39.801Z,99196.41
2022-10-18T04:48:12.277Z,99187.72
2022-10-18T04:50:41.915Z,99196.75
2022-10-18T04:53:11.603Z,99199.53
2022-10-18T04:55:41.497Z,99189.69
2022-10-18T04:58:11.150Z,99200.34
2022-10-18T05:00:40.944Z,99182.63
2022-10-18T05:03:15.377Z,99203.91
2022-10-18T05:06:03.124Z,99195.63
2022-10-18T05:08:34.127Z,99199.94
2022-10-18T05:11:04.529Z,99192.50
2022-10-18T05:13:34.354Z,99193.31
2022-10-18T05:16:04.035Z,99191.72
2022-10-18T05:18:36.362Z,99193.28
2022-10-18T05:21:06.301Z,99195.28
2022-10-18T05:23:35.986Z,99198.03
2022-10-18T05:26:09.062Z,99191.72
2022-10-18T05:28:40.497Z,99187.44
2022-10-18T05:31:13.044Z,99191.00
2022-10-18T05:33:45.431Z,99192.94
2022-10-18T05:36:15.109Z,99187.84
2022-10-18T05:38:45.704Z,99194.88
2022-10-18T05:41:15.815Z,99194.06
2022-10-18T05:43:45.534Z,99190.13
2022-10-18T05:46:15.951Z,99203.47
2022-10-18T05:48:53.032Z,99212.09
2022-10-18T05:51:23.155Z,99206.59
2022-10-18T05:53:53.168Z,99198.66
2022-10-18T05:56:22.992Z,99213.59
2022-10-18T05:58:53.761Z,99214.78
2022-10-18T06:01:23.563Z,99211.19
2022-10-18T06:03:56.112Z,99213.13
2022-10-18T06:06:25.792Z,99211.59
2022-10-18T06:08:55.621Z,99204.13
2022-10-18T06:11:25.350Z,99200.94
2022-10-18T06:13:55.636Z,99206.47
2022-10-18T06:16:31.214Z,99204.13
2022-10-18T06:19:04.634Z,99200.19
2022-10-18T06:21:34.304Z,99199.44
2022-10-18T06:24:03.966Z,99211.25
2022-10-18T06:26:33.835Z,99213.66
2022-10-18T06:29:03.766Z,99223.47
2022-10-18T06:31:33.484Z,99219.88
2022-10-18T06:34:05.797Z,99227.78
2022-10-18T06:36:35.482Z,99225.47
2022-10-18T06:39:05.276Z,99216.13
2022-10-18T06:41:34.992Z,99213.78
2022-10-18T06:44:13.740Z,99213.19
2022-10-18T06:46:44.090Z,99230.59
2022-10-18T06:49:19.143Z,99231.44
2022-10-18T06:51:49.660Z,99231.06
2022-10-18T06:54:19.828Z,99229.09
2022-10-18T06:56:49.616Z,99234.19
2022-10-18T06:59:19.538Z,99237.41
2022-10-18T07:01:49.189Z,99242.50
2022-10-18T07:04:21.950Z,99236.19
2022-10-18T07:06:56.728Z,99233.00
2022-10-18T07:09:26.319Z,99229.88
2022-10-18T07:11:55.919Z,99232.66
2022-10-18T07:14:28.918Z,99237.03
2022-10-18T07:17:02.030Z,99217.69
2022-10-18T07:19:37.246Z,99226.78
2022-10-18T07:22:07.050Z,99238.97
2022-10-18T07:24:36.868Z,99227.91
2022-10-18T07:27:06.841Z,99229.88
2022-10-18T07:29:38.330Z,99231.84
2022-10-18T07:32:08.580Z,99236.22
2022-10-18T07:34:40.935Z,99239.00
2022-10-18T07:37:11.406Z,99242.13
2022-10-18T07:39:41.214Z,99239.78
2022-10-18T07:42:11.040Z,99247.69
2022-10-18T07:44:41.965Z,99240.22
2022-10-18T07:47:13.216Z,99241.81
2022-10-18T07:53:09.873Z,99240.25
2022-10-18T07:55:39.733Z,99246.56
2022-10-18T07:58:09.577Z,99241.06
2022-10-18T08:00:39.345Z,99239.13
2022-10-18T08:03:09.583Z,99240.31
2022-10-18T08:05:39.333Z,99236.75
2022-10-18T08:08:14.899Z,99250.53
2022-10-18T08:10:44.658Z,99250.53
2022-10-18T08:13:14.349Z,99246.94
2022-10-18T08:15:44.265Z,99240.59
2022-10-18T08:18:14.442Z,99255.19
2022-10-18T08:20:48.199Z,99253.63
2022-10-18T08:23:20.539Z,99263.91
2022-10-18T08:25:51.039Z,99266.25
2022-10-18T08:28:28.164Z,99270.09
2022-10-18T08:30:58.052Z,99272.94
2022-10-18T08:33:27.849Z,99276.94
2022-10-18T08:35:58.360Z,99268.63
2022-10-18T08:38:33.351Z,99276.94
2022-10-18T08:41:04.800Z,99271.41
2022-10-18T08:43:41.898Z,99272.59
2022-10-18T08:46:15.487Z,99272.59
2022-10-18T08:48:49.323Z,99271.81
2022-10-18T08:51:30.036Z,99270.22
2022-10-18T08:54:07.140Z,99284.81
2022-10-18T08:56:37.633Z,99272.94
2022-10-18T08:59:12.414Z,99269.72
2022-10-18T09:01:51.400Z,99276.84
2022-10-18T09:07:51.713Z,99281.19
2022-10-18T09:10:36.115Z,99281.50
2022-10-18T09:13:24.728Z,99285.97
2022-10-18T09:15:59.939Z,99285.84
2022-10-18T09:18:51.406Z,99285.50
2022-10-18T09:21:24.063Z,99286.63
2022-10-18T09:24:04.962Z,99292.09
2022-10-18T09:26:46.234Z,99300.31
2022-10-18T09:29:35.260Z,99296.31
2022-10-18T09:32:09.339Z,99303.28
2022-10-18T09:34:48.342Z,99305.09
2022-10-18T09:37:21.690Z,99309.13
2022-10-18T09:39:53.553Z,99305.47
2022-10-18T09:42:31.068Z,99310.41
2022-10-18T09:45:05.759Z,99313.97
2022-10-18T09:47:40.652Z,99306.56
2022-10-18T09:50:24.296Z,99311.88
2022-10-18T09:52:59.710Z,99307.56
2022-10-18T09:55:36.849Z,99316.84
2022-10-18T09:58:14.589Z,99320.16
2022-10-18T10:00:50.176Z,99316.16
2022-10-18T10:03:20.079Z,99308.72
2022-10-18T10:05:49.990Z,99302.66
2022-10-18T10:08:19.675Z,99320.06
2022-10-18T10:10:50.605Z,99314.38
2022-10-18T10:13:28.321Z,99319.25
2022-10-18T10:16:00.247Z,99325.44
2022-10-18T10:18:32.814Z,99315.50
2022-10-18T10:21:05.833Z,99319.16
2022-10-18T10:23:40.548Z,99319.94
2022-10-18T10:26:25.555Z,99320.31
2022-10-18T10:28:58.283Z,99321.41
2022-10-18T10:31:31.362Z,99312.19
2022-10-18T10:34:03.725Z,99311.59
2022-10-18T10:36:35.236Z,99309.59
2022-10-18T10:39:12.622Z,99306.44
2022-10-18T10:41:44.036Z,99304.84
2022-10-18T10:44:21.907Z,99314.28
2022-10-18T10:46:53.091Z,99311.63
2022-10-18T10:49:39.543Z,99313.50
2022-10-18T10:52:26.202Z,99310.59
2022-10-18T10:55:06.252Z,99303.84
2022-10-18T10:57:48.743Z,99309.28
2022-10-18T11:00:43.677Z,99295.75
2022-10-18T11:03:28.482Z,99301.09
2022-10-18T11:06:01.149Z,99311.22
2022-10-18T11:08:36.397Z,99299.22
2022-10-18T11:11:19.379Z,99301.84
2022-10-18T11:14:07.384Z,99306.06
2022-10-18T11:16:56.332Z,99301.28
2022-10-18T11:19:36.992Z,99296.72
2022-10-18T11:22:09.440Z,99301.53
2022-10-18T11:24:39.684Z,99286.88
2022-10-18T11:27:17.863Z,99286.28
2022-10-18T11:29:58.236Z,99289.34
2022-10-18T11:32:37.517Z,99289.78
2022-10-18T11:35:25.350Z,99286.38
2022-10-18T11:38:07.793Z,99278.19
2022-10-18T11:40:58.428Z,99277.84
2022-10-18T11:44:00.722Z,99271.38
2022-10-18T11:46:43.271Z,99273.81
2022-10-18T11:49:28.707Z,99263.50
2022-10-18T11:52:10.570Z,99264.34
2022-10-18T11:55:13.646Z,99269.75
2022-10-18T11:57:49.030Z,99273.06
2022-10-18T12:00:40.775Z,99279.31
2022-10-18T12:03:22.661Z,99272.16
2022-10-18T12:05:56.911Z,99271.44
2022-10-18T12:08:30.719Z,99275.91
2022-10-18T12:11:06.408Z,99260.47
2022-10-18T12:13:41.868Z,99270.97
2022-10-18T12:16:13.573Z,99270.66
2022-10-18T12:18:54.379Z,99267.38
2022-10-18T12:21:29.769Z,99249.94
2022-10-18T12:24:02.479Z,99258.66
2022-10-18T12:26:33.554Z,99249.84
2022-10-18T12:29:17.045Z,99255.69
2022-10-18T12:31:51.071Z,99251.09
2022-10-18T12:34:36.298Z,99242.88
2022-10-18T12:37:40.774Z,99249.78
2022-10-18T12:40:20.305Z,99237.84
2022-10-18T12:42:53.413Z,99244.16
2022-10-18T12:45:33.512Z,99250.97
2022-10-18T12:48:05.166Z,99238.41
2022-10-18T12:50:38.122Z,99254.31
2022-10-18T12:53:21.091Z,99240.31
2022-10-18T12:55:52.514Z,99242.38
2022-10-18T12:58:34.400Z,99243.66
2022-10-18T13:01:07.721Z,99246.28
2022-10-18T13:04:02.732Z,99241.88
2022-10-18T13:07:03.182Z,99244.00
2022-10-18T13:09:37.645Z,99245.00
2022-10-18T13:12:46.941Z,99242.28
2022-10-18T13:15:38.186Z,99248.94
2022-10-18T13:18:18.712Z,99246.41
2022-10-18T13:20:55.463Z,99247.66
2022-10-18T13:23:45.683Z,99248.16
2022-10-18T13:26:27.219Z,99248.03
2022-10-18T13:29:06.055Z,99244.06
2022-10-18T13:31:44.242Z,99249.56
2022-10-18T13:34:31.015Z,99250.22
2022-10-18T13:37:03.476Z,99247.66
2022-10-18T13:39:34.673Z,99246.94
2022-10-18T13:42:32.313Z,99245.59
2022-10-18T13:45:32.294Z,99242.31
2022-10-18T13:48:46.186Z,99243.97
2022-10-18T13:51:52.169Z,99237.47
2022-10-18T13:54:41.396Z,99237.47
2022-10-18T13:57:23.097Z,99244.09
2022-10-18T14:00:17.065Z,99242.16
2022-10-18T14:03:16.263Z,99254.66
2022-10-18T14:05:57.951Z,99255.38
2022-10-18T14:08:39.990Z,99260.31
2022-10-18T14:11:22.119Z,99263.47
2022-10-18T14:13:57.697Z,99258.63
2022-10-18T14:16:38.294Z,99259.50
2022-10-18T14:19:17.808Z,99262.78
2022-10-18T14:21:54.987Z,99264.97
2022-10-18T14:24:28.382Z,99265.88
2022-10-18T14:27:14.304Z,99268.78
2022-10-18T14:29:44.123Z,99268.91
2022-10-18T14:32:26.782Z,99277.19
2022-10-18T14:35:27.298Z,99275.13
2022-10-18T14:37:49.407Z,99279.91
2022-10-18T14:40:39.121Z,99279.63
2022-10-18T14:43:14.485Z,99284.75
2022-10-18T14:45:45.661Z,99279.63
2022-10-18T14:48:23.670Z,99283.22
2022-10-18T14:51:00.693Z,99284.47
2022-10-18T14:53:36.012Z,99278.56
2022-10-18T14:56:07.549Z,99286.56
2022-10-18T14:58:39.622Z,99271.53
2022-10-18T15:01:09.731Z,99275.84
2022-10-18T15:03:42.122Z,99273.88
2022-10-18T15:06:18.201Z,99272.72
2022-10-18T15:08:49.201Z,99273.94
2022-10-18T15:11:19.619Z,99274.44
2022-10-18T15:13:53.182Z,99274.84
2022-10-18T15:16:25.355Z,99273.75
2022-10-18T15:19:10.389Z,99274.97
2022-10-18T15:21:40.075Z,99279.34
2022-10-18T15:24:29.447Z,99271.47
2022-10-18T15:27:03.401Z,99281.38
2022-10-18T15:29:36.905Z,99274.25
2022-10-18T15:32:18.447Z,99276.25
2022-10-18T15:34:50.852Z,99276.31
2022-10-18T15:37:31.940Z,99268.03
2022-10-18T15:40:32.457Z,99267.25
2022-10-18T15:43:03.826Z,99269.66
2022-10-18T15:45:37.586Z,99267.31
2022-10-18T15:48:25.103Z,99267.72
2022-10-18T15:51:02.068Z,99262.66
2022-10-18T15:53:38.021Z,99268.97
2022-10-18T15:56:10.072Z,99263.44
2022-10-18T15:58:45.770Z,99263.47
2022-10-18T16:01:20.696Z,99261.50
2022-10-18T16:03:51.518Z,99266.66
2022-10-18T16:06:24.122Z,99261.94
2022-10-18T16:08:55.794Z,99273.03
2022-10-18T16:11:27.264Z,99274.19
2022-10-18T16:13:59.608Z,99267.13
2022-10-18T16:16:31.962Z,99271.09
2022-10-18T16:19:01.684Z,99272.28
2022-10-18T16:21:35.967Z,99277.84
2022-10-18T16:24:06.973Z,99277.50
2022-10-18T16:26:38.745Z,99279.09
2022-10-18T16:29:09.195Z,99272.38
2022-10-18T16:31:38.944Z,99280.28
2022-10-18T16:34:11.059Z,99281.06
2022-10-18T16:36:44.258Z,99285.47
2022-10-18T16:39:18.294Z,99287.84
2022-10-18T16:41:48.174Z,99289.03
2022-10-18T16:44:19.333Z,99289.84
2022-10-18T16:46:52.524Z,99286.25
2022-10-18T16:49:26.470Z,99291.44
2022-10-18T16:51:59.594Z,99292.25
2022-10-18T16:54:29.224Z,99301.72
2022-10-18T16:56:58.999Z,99293.81
2022-10-18T16:59:30.669Z,99304.88
2022-10-18T17:02:04.821Z,99310.41
2022-10-18T17:04:34.487Z,99312.41
2022-10-18T17:07:07.683Z,99317.53
2022-10-18T17:09:37.665Z,99318.00
2022-10-18T17:12:08.245Z,99320.72
2022-10-18T17:14:38.572Z,99323.13
2022-10-18T17:17:08.215Z,99333.41
2022-10-18T17:19:37.867Z,99327.88
2022-10-18T17:22:10.161Z,99335.78
2022-10-18T17:24:39.866Z,99335.03
2022-10-18T17:27:09.579Z,99338.97
2022-10-18T17:29:41.041Z,99340.56
2022-10-18T17:32:10.826Z,99338.19
2022-10-18T17:37:13.733Z,99342.50
2022-10-18T17:39:43.414Z,99347.66
2022-10-18T17:42:13.083Z,99340.59
2022-10-18T17:44:43.388Z,99339.78
2022-10-18T17:47:12.949Z,99340.94
2022-10-18T17:49:44.995Z,99331.03
2022-10-18T17:52:17.194Z,99333.38
2022-10-18T17:54:46.865Z,99342.06
2022-10-18T17:57:16.480Z,99345.28
2022-10-18T17:59:46.186Z,99339.75
2022-10-18T18:02:15.850Z,99342.91
2022-10-18T18:04:45.576Z,99346.84
2022-10-18T18:07:17.786Z,99338.97
2022-10-18T18:09:47.351Z,99349.25
2022-10-18T18:12:17.162Z,99347.72
2022-10-18T18:14:46.838Z,99354.00
2022-10-18T18:17:24.644Z,99346.13
2022-10-18T18:20:03.388Z,99355.59
2022-10-18T18:22:40.372Z,99353.25
2022-10-18T18:25:12.623Z,99356.78
2022-10-18T18:27:42.334Z,99354.81
2022-10-18T18:30:12.985Z,99358.34
2022-10-18T18:32:42.782Z,99356.00
2022-10-18T18:35:12.951Z,99348.09
2022-10-18T18:37:45.259Z,99349.69
2022-10-18T18:40:14.969Z,99359.16
2022-10-18T18:42:46.041Z,99349.28
2022-10-18T18:45:22.909Z,99352.06
2022-10-18T18:47:52.517Z,99345.34
2022-10-18T18:50:22.191Z,99342.94
2022-10-18T18:52:54.456Z,99342.97
2022-10-18T18:55:24.236Z,99356.38
2022-10-18T18:57:53.872Z,99355.59
2022-10-18T19:00:23.518Z,99350.84
2022-10-18T19:02:53.107Z,99345.31
2022-10-18T19:07:55.897Z,99343.78
2022-10-18T19:10:25.553Z,99341.38
2022-10-18T19:12:55.267Z,99351.66
2022-10-18T19:15:25.090Z,99339.41
2022-10-18T19:17:54.860Z,99331.53
2022-10-18T19:20:24.953Z,99332.69
2022-10-18T19:22:57.201Z,99329.53
2022-10-18T19:25:27.110Z,99331.13
2022-10-18T19:27:56.865Z,99329.13
2022-10-18T19:30:26.713Z,99333.44
2022-10-18T19:33:01.239Z,99329.50
2022-10-18T19:35:33.298Z,99331.47
2022-10-18T19:38:05.565Z,99336.59
2022-10-18T19:40:35.226Z,99337.78
2022-10-18T19:43:04.968Z,99334.25
2022-10-18T19:45:35.430Z,99337.41
2022-10-18T19:48:05.094Z,99331.06
2022-10-18T19:50:34.747Z,99331.88
2022-10-18T19:53:06.979Z,99337.41
2022-10-18T19:55:36.692Z,99335.03
2022-10-18T19:58:06.378Z,99334.25
2022-10-18T20:00:36.027Z,99329.88
2022-10-18T20:03:05.637Z,99324.72
2022-10-18T20:05:35.253Z,99332.22
2022-10-18T20:08:07.732Z,99333.75
2022-10-18T20:10:37.418Z,99331.38
2022-10-18T20:13:07.050Z,99339.31
2022-10-18T20:15:36.693Z,99336.53
2022-10-18T20:18:06.506Z,99336.53
2022-10-18T20:20:37.629Z,99332.22
2022-10-18T20:23:09.947Z,99336.91
2022-10-18T20:25:39.850Z,99334.13
2022-10-18T20:28:09.868Z,99345.97
2022-10-18T20:30:39.567Z,99339.66
2022-10-18T20:33:09.300Z,99341.22
2022-10-18T20:35:39.065Z,99347.53
2022-10-18T20:38:11.488Z,99342.78
2022-10-18T20:40:41.237Z,99351.03
2022-10-18T20:43:10.954Z,99340.41
2022-10-18T20:45:40.691Z,99339.16
2022-10-18T20:48:10.344Z,99336.75
2022-10-18T20:50:43.640Z,99346.56
2022-10-18T20:53:16.534Z,99345.41
2022-10-18T20:55:46.277Z,99343.47
2022-10-18T20:58:16.334Z,99338.75
2022-10-18T21:00:46.041Z,99333.19
2022-10-18T21:03:15.747Z,99334.31
2022-10-18T21:05:45.395Z,99338.59
2022-10-18T21:08:18.002Z,99334.25
2022-10-18T21:10:47.751Z,99331.44
2022-10-18T21:13:17.417Z,99326.38
2022-10-18T21:15:47.000Z,99324.78
2022-10-18T21:18:16.685Z,99324.34
2022-10-18T21:20:46.316Z,99318.47
2022-10-18T21:23:18.610Z,99322.06
2022-10-18T21:25:48.482Z,99321.28
2022-10-18T21:28:18.987Z,99337.81
2022-10-18T21:30:48.695Z,99321.63
2022-10-18T21:33:18.427Z,99328.69
2022-10-18T21:35:48.174Z,99331.06
2022-10-18T21:38:20.544Z,99329.06
2022-10-18T21:40:50.226Z,99321.97
2022-10-18T21:43:19.934Z,99330.59
2022-10-18T21:45:49.632Z,99331.78
2022-10-18T21:48:19.281Z,99321.91
2022-10-18T21:50:48.990Z,99321.47
2022-10-18T21:53:21.267Z,99327.38
2022-10-18T21:55:51.135Z,99322.66
2022-10-18T21:58:21.037Z,99317.13
2022-10-18T22:00:50.816Z,99308.84
2022-10-18T22:03:23.328Z,99298.94
2022-10-18T22:06:01.392Z,99297.75
2022-10-18T22:08:33.754Z,99302.50
2022-10-18T22:11:03.840Z,99308.41
2022-10-18T22:13:34.252Z,99300.09
2022-10-18T22:16:04.825Z,99299.69
2022-10-18T22:18:35.777Z,99305.97
2022-10-18T22:21:08.069Z,99305.59
2022-10-18T22:23:42.248Z,99308.72
2022-10-18T22:26:14.962Z,99302.00
2022-10-18T22:28:46.597Z,99303.97
2022-10-18T22:31:17.723Z,99298.47
2022-10-18T22:33:47.761Z,99306.81
2022-10-18T22:36:17.370Z,99293.81
2022-10-18T22:38:49.561Z,99298.94
2022-10-18T22:41:19.675Z,99296.56
2022-10-18T22:43:50.043Z,99296.56
2022-10-18T22:46:20.568Z,99293.38
2022-10-18T22:48:50.638Z,99293.00
2022-10-18T22:51:20.717Z,99293.38
2022-10-18T22:53:53.130Z,99289.50
2022-10-18T22:56:24.605Z,99281.59
2022-10-18T22:58:54.481Z,99282.78
2022-10-18T23:01:25.828Z,99283.13
2022-10-18T23:03:56.245Z,99270.41
2022-10-18T23:06:28.079Z,99284.88
2022-10-18T23:09:02.455Z,99287.19
2022-10-18T23:11:32.647Z,99281.34
2022-10-18T23:14:03.778Z,99269.53
2022-10-18T23:16:33.477Z,99272.66
2022-10-18T23:19:03.364Z,99276.25
2022-10-18T23:21:33.009Z,99272.63
2022-10-18T23:24:05.421Z,99280.47
2022-10-18T23:26:35.250Z,99280.31
2022-10-18T23:29:05.034Z,99269.19
2022-10-18T23:31:35.862Z,99268.00
2022-10-18T23:34:07.815Z,99278.34
2022-10-18T23:36:37.683Z,99275.19
2022-10-18T23:39:10.041Z,99274.03
2022-10-18T23:41:39.694Z,99277.16
2022-10-18T23:44:11.025Z,99277.97
2022-10-18T23:46:40.675Z,99274.00
2022-10-18T23:49:10.371Z,99266.09
2022-10-18T23:51:40.067Z,99270.47
2022-10-18T23:54:12.436Z,99272.38
2022-10-18T23:56:42.127Z,99273.13
2022-10-18T23:59:11.834Z,99275.47
